createdAt,value
2019-03-10T00:00:44.615Z,0.00
2019-03-10T00:01:44.789Z,0.00
2019-03-10T00:02:44.963Z,0.00
2019-03-10T00:03:45.146Z,0.00
2019-03-10T00:04:45.312Z,0.00
2019-03-10T00:05:45.485Z,0.00
2019-03-10T00:06:45.657Z,0.00
2019-03-10T00:07:45.832Z,0.00
2019-03-10T00:08:46.002Z,0.00
2019-03-10T00:09:46.176Z,0.00
2019-03-10T00:10:46.349Z,0.00
2019-03-10T00:11:46.518Z,0.00
2019-03-10T00:12:46.693Z,0.00
2019-03-10T00:13:46.867Z,0.00
2019-03-10T00:14:47.036Z,0.00
2019-03-10T00:15:47.209Z,0.00
2019-03-10T00:16:47.381Z,0.00
2019-03-10T00:17:47.561Z,0.00
2019-03-10T00:18:47.729Z,0.00
2019-03-10T00:19:47.902Z,0.00
2019-03-10T00:20:48.077Z,0.00
2019-03-10T00:21:48.246Z,0.00
2019-03-10T00:22:48.416Z,0.00
2019-03-10T00:23:48.591Z,0.00
2019-03-10T00:24:48.770Z,0.00
2019-03-10T00:25:48.935Z,0.00
2019-03-10T00:26:49.108Z,0.00
2019-03-10T00:27:49.302Z,0.00
2019-03-10T00:28:49.462Z,0.00
2019-03-10T00:29:49.629Z,0.00
2019-03-10T00:30:49.802Z,0.00
2019-03-10T00:31:49.976Z,0.00
2019-03-10T00:32:50.145Z,0.00
2019-03-10T00:33:50.320Z,0.00
2019-03-10T00:34:50.491Z,0.00
2019-03-10T00:35:50.668Z,0.00
2019-03-10T00:36:50.835Z,0.00
2019-03-10T00:37:51.030Z,0.00
2019-03-10T00:38:51.181Z,0.00
2019-03-10T00:39:51.354Z,0.00
2019-03-10T00:40:51.526Z,0.00
2019-03-10T00:41:51.698Z,0.00
2019-03-10T00:42:51.868Z,0.00
2019-03-10T00:43:52.044Z,0.00
2019-03-10T00:44:52.215Z,0.00
2019-03-10T00:45:52.387Z,0.00
2019-03-10T00:46:52.562Z,0.00
2019-03-10T00:47:52.735Z,0.00
2019-03-10T00:48:52.907Z,0.00
2019-03-10T00:49:53.095Z,0.00
2019-03-10T00:50:53.254Z,0.00
2019-03-10T00:51:53.431Z,0.00
2019-03-10T00:52:53.605Z,0.00
2019-03-10T00:53:53.776Z,0.00
2019-03-10T00:54:53.958Z,0.00
2019-03-10T00:55:54.121Z,0.00
2019-03-10T00:56:54.291Z,0.00
2019-03-10T00:57:54.468Z,0.00
2019-03-10T00:58:54.644Z,0.00
2019-03-10T00:59:54.817Z,0.00
2019-03-10T01:00:54.991Z,0.00
2019-03-10T01:01:55.155Z,0.00
2019-03-10T01:02:55.329Z,0.00
2019-03-10T01:03:55.503Z,0.00
2019-03-10T01:04:55.772Z,0.00
2019-03-10T01:05:55.864Z,0.00
2019-03-10T01:06:56.029Z,0.00
2019-03-10T01:07:56.199Z,0.00
2019-03-10T01:08:56.370Z,0.00
2019-03-10T01:09:56.536Z,0.00
2019-03-10T01:10:56.712Z,0.00
2019-03-10T01:11:56.889Z,0.00
2019-03-10T01:12:57.071Z,0.00
2019-03-10T01:13:57.240Z,0.00
2019-03-10T01:14:57.406Z,0.00
2019-03-10T01:15:57.578Z,0.00
2019-03-10T01:16:57.756Z,0.00
2019-03-10T01:17:57.926Z,0.00
2019-03-10T01:18:58.089Z,0.00
2019-03-10T01:19:58.284Z,0.00
2019-03-10T01:20:58.436Z,0.00
2019-03-10T01:21:58.611Z,0.00
2019-03-10T01:22:58.792Z,0.00
2019-03-10T01:23:58.969Z,0.00
2019-03-10T01:24:59.124Z,0.00
2019-03-10T01:25:59.282Z,0.00
2019-03-10T01:26:59.444Z,0.00
2019-03-10T01:27:59.619Z,0.00
2019-03-10T01:28:59.798Z,0.00
2019-03-10T01:29:59.964Z,0.00
2019-03-10T01:31:00.132Z,0.00
2019-03-10T01:32:00.314Z,0.00
2019-03-10T01:33:00.484Z,0.00
2019-03-10T01:34:00.651Z,0.00
2019-03-10T01:35:00.836Z,0.00
2019-03-10T01:36:01.061Z,0.00
2019-03-10T01:37:01.176Z,0.00
2019-03-10T01:38:01.343Z,0.00
2019-03-10T01:39:01.548Z,0.00
2019-03-10T01:40:01.688Z,0.00
2019-03-10T01:41:01.865Z,0.00
2019-03-10T01:42:02.043Z,0.00
2019-03-10T01:43:02.203Z,0.00
2019-03-10T01:44:02.376Z,0.00
2019-03-10T01:45:02.550Z,0.00
2019-03-10T01:46:02.723Z,0.00
2019-03-10T01:47:02.936Z,0.00
2019-03-10T01:48:03.060Z,0.00
2019-03-10T01:49:03.234Z,0.00
2019-03-10T01:50:03.409Z,0.00
2019-03-10T01:51:03.576Z,0.00
2019-03-10T01:52:03.749Z,0.00
2019-03-10T01:53:03.980Z,0.00
2019-03-10T01:54:04.186Z,0.00
2019-03-10T01:55:04.268Z,0.00
2019-03-10T01:56:04.441Z,0.00
2019-03-10T01:57:04.630Z,0.00
2019-03-10T01:58:04.809Z,0.00
2019-03-10T01:59:04.987Z,0.00
2019-03-10T02:00:05.160Z,0.00
2019-03-10T02:01:05.338Z,0.00
2019-03-10T02:02:05.499Z,0.00
2019-03-10T02:03:05.671Z,0.00
2019-03-10T02:04:05.863Z,0.00
2019-03-10T02:05:06.062Z,0.00
2019-03-10T02:06:06.184Z,0.00
2019-03-10T02:07:06.351Z,0.00
2019-03-10T02:08:06.529Z,0.00
2019-03-10T02:09:06.701Z,0.00
2019-03-10T02:10:06.960Z,0.00
2019-03-10T02:11:07.040Z,0.00
2019-03-10T02:12:07.206Z,0.00
2019-03-10T02:13:07.382Z,0.00
2019-03-10T02:14:07.550Z,0.00
2019-03-10T02:15:07.725Z,0.00
2019-03-10T02:16:07.899Z,0.00
2019-03-10T02:17:08.069Z,0.00
2019-03-10T02:18:08.242Z,0.00
2019-03-10T02:19:08.413Z,0.00
2019-03-10T02:20:08.590Z,0.00
2019-03-10T02:21:08.758Z,0.00
2019-03-10T02:22:08.933Z,0.00
2019-03-10T02:23:09.107Z,0.00
2019-03-10T02:24:09.293Z,0.00
2019-03-10T02:25:09.455Z,0.00
2019-03-10T02:26:09.626Z,0.00
2019-03-10T02:27:09.788Z,0.00
2019-03-10T02:28:09.960Z,0.00
2019-03-10T02:29:10.136Z,0.00
2019-03-10T02:30:10.309Z,0.00
2019-03-10T02:31:10.479Z,0.00
2019-03-10T02:32:10.655Z,0.00
2019-03-10T02:33:10.832Z,0.00
2019-03-10T02:34:10.995Z,0.00
2019-03-10T02:35:11.195Z,0.00
2019-03-10T02:36:11.347Z,0.00
2019-03-10T02:37:11.524Z,0.00
2019-03-10T02:38:11.703Z,0.00
2019-03-10T02:39:11.871Z,0.00
2019-03-10T02:40:12.103Z,0.00
2019-03-10T02:41:12.214Z,0.00
2019-03-10T02:42:12.386Z,0.00
2019-03-10T02:43:12.562Z,0.00
2019-03-10T02:44:12.729Z,0.00
2019-03-10T02:45:12.912Z,0.00
2019-03-10T02:46:13.078Z,0.00
2019-03-10T02:47:13.245Z,0.00
2019-03-10T02:48:13.419Z,0.00
2019-03-10T02:49:13.591Z,0.00
2019-03-10T02:50:13.764Z,0.00
2019-03-10T02:51:13.960Z,0.00
2019-03-10T02:52:14.109Z,0.00
2019-03-10T02:53:14.283Z,0.00
2019-03-10T02:54:14.456Z,0.00
2019-03-10T02:55:14.640Z,0.00
2019-03-10T02:56:14.802Z,0.00
2019-03-10T02:57:14.985Z,0.00
2019-03-10T02:58:15.154Z,0.00
2019-03-10T02:59:15.321Z,0.00
2019-03-10T03:00:15.486Z,0.00
2019-03-10T03:01:15.680Z,0.00
2019-03-10T03:02:15.850Z,0.00
2019-03-10T03:03:16.006Z,0.00
2019-03-10T03:04:16.205Z,0.00
2019-03-10T03:05:16.360Z,0.00
2019-03-10T03:06:16.538Z,0.00
2019-03-10T03:07:16.686Z,0.00
2019-03-10T03:08:17.208Z,0.00
2019-03-10T03:09:17.034Z,0.00
2019-03-10T03:10:17.201Z,0.00
2019-03-10T03:11:17.392Z,0.00
2019-03-10T03:12:17.560Z,0.00
2019-03-10T03:13:17.731Z,0.00
2019-03-10T03:14:17.892Z,0.00
2019-03-10T03:15:18.059Z,0.00
2019-03-10T03:16:18.238Z,0.00
2019-03-10T03:17:18.411Z,0.00
2019-03-10T03:18:18.581Z,0.00
2019-03-10T03:19:18.771Z,0.00
2019-03-10T03:20:18.927Z,0.00
2019-03-10T03:21:19.151Z,0.00
2019-03-10T03:22:19.291Z,0.00
2019-03-10T03:23:19.441Z,0.00
2019-03-10T03:24:19.601Z,0.00
2019-03-10T03:25:19.772Z,0.00
2019-03-10T03:26:19.956Z,0.00
2019-03-10T03:27:20.139Z,0.00
2019-03-10T03:28:20.307Z,0.00
2019-03-10T03:29:20.484Z,0.00
2019-03-10T03:30:20.654Z,0.00
2019-03-10T03:31:20.843Z,0.00
2019-03-10T03:32:21.035Z,0.00
2019-03-10T03:33:21.189Z,0.00
2019-03-10T03:34:21.350Z,0.00
2019-03-10T03:35:21.530Z,0.00
2019-03-10T03:36:21.734Z,0.00
2019-03-10T03:37:21.872Z,0.00
2019-03-10T03:38:22.040Z,0.00
2019-03-10T03:39:22.225Z,0.00
2019-03-10T03:40:22.399Z,0.00
2019-03-10T03:41:22.571Z,0.00
2019-03-10T03:42:22.729Z,0.00
2019-03-10T03:43:22.902Z,0.00
2019-03-10T03:44:23.106Z,0.00
2019-03-10T03:45:23.229Z,0.00
2019-03-10T03:46:23.405Z,0.00
2019-03-10T03:47:23.577Z,0.00
2019-03-10T03:48:23.756Z,0.00
2019-03-10T03:49:23.931Z,0.00
2019-03-10T03:50:24.101Z,0.00
2019-03-10T03:51:24.270Z,0.00
2019-03-10T03:52:24.450Z,0.00
2019-03-10T03:53:24.622Z,0.00
2019-03-10T03:54:24.800Z,0.00
2019-03-10T03:55:24.970Z,0.00
2019-03-10T03:56:25.135Z,0.00
2019-03-10T03:57:25.309Z,0.00
2019-03-10T03:58:25.481Z,0.00
2019-03-10T03:59:25.716Z,0.00
2019-03-10T04:00:25.829Z,0.00
2019-03-10T04:01:26.007Z,0.00
2019-03-10T04:02:26.174Z,0.00
2019-03-10T04:03:26.353Z,0.00
2019-03-10T04:04:26.531Z,0.00
2019-03-10T04:05:26.716Z,0.00
2019-03-10T04:06:26.872Z,0.00
2019-03-10T04:07:27.045Z,0.00
2019-03-10T04:08:27.215Z,0.00
2019-03-10T04:09:27.403Z,0.00
2019-03-10T04:10:27.561Z,0.00
2019-03-10T04:11:27.742Z,0.00
2019-03-10T04:12:27.934Z,0.00
2019-03-10T04:13:28.096Z,0.00
2019-03-10T04:14:28.281Z,0.00
2019-03-10T04:15:28.436Z,0.00
2019-03-10T04:16:28.619Z,0.00
2019-03-10T04:17:28.812Z,0.00
2019-03-10T04:18:28.957Z,0.00
2019-03-10T04:19:29.130Z,0.00
2019-03-10T04:20:29.359Z,0.00
2019-03-10T04:21:29.477Z,0.00
2019-03-10T04:22:29.661Z,0.00
2019-03-10T04:23:29.819Z,0.00
2019-03-10T04:24:29.996Z,0.00
2019-03-10T04:25:30.165Z,0.00
2019-03-10T04:26:30.340Z,0.00
2019-03-10T04:27:30.511Z,0.00
2019-03-10T04:28:30.687Z,0.00
2019-03-10T04:29:30.872Z,0.00
2019-03-10T04:30:31.032Z,0.00
2019-03-10T04:31:31.197Z,0.00
2019-03-10T04:32:31.374Z,0.00
2019-03-10T04:33:31.534Z,0.00
2019-03-10T04:34:31.707Z,0.00
2019-03-10T04:35:31.933Z,0.00
2019-03-10T04:36:32.055Z,0.00
2019-03-10T04:37:32.217Z,0.00
2019-03-10T04:38:32.389Z,0.00
2019-03-10T04:39:32.576Z,0.00
2019-03-10T04:40:32.743Z,0.00
2019-03-10T04:41:32.912Z,0.00
2019-03-10T04:42:33.099Z,0.00
2019-03-10T04:43:33.268Z,0.00
2019-03-10T04:44:33.435Z,0.00
2019-03-10T04:45:33.614Z,0.00
2019-03-10T04:46:33.812Z,0.00
2019-03-10T04:47:33.955Z,0.00
2019-03-10T04:48:34.119Z,0.00
2019-03-10T04:49:34.290Z,0.00
2019-03-10T04:50:34.468Z,0.00
2019-03-10T04:51:34.639Z,0.00
2019-03-10T04:52:34.810Z,0.00
2019-03-10T04:53:34.982Z,0.00
2019-03-10T04:54:35.152Z,0.00
2019-03-10T04:55:35.323Z,0.00
2019-03-10T04:56:35.497Z,0.00
2019-03-10T04:57:35.653Z,0.00
2019-03-10T04:58:35.829Z,0.00
2019-03-10T04:59:35.995Z,0.00
2019-03-10T05:00:36.164Z,0.00
2019-03-10T05:01:36.343Z,0.00
2019-03-10T05:02:36.514Z,0.00
2019-03-10T05:03:36.700Z,0.00
2019-03-10T05:04:36.861Z,0.00
2019-03-10T05:05:37.035Z,0.00
2019-03-10T05:06:37.200Z,0.00
2019-03-10T05:07:37.379Z,0.00
2019-03-10T05:08:37.562Z,0.00
2019-03-10T05:09:37.719Z,0.00
2019-03-10T05:10:37.893Z,0.00
2019-03-10T05:11:38.075Z,0.00
2019-03-10T05:12:38.240Z,0.00
2019-03-10T05:13:38.412Z,0.00
2019-03-10T05:14:38.592Z,0.00
2019-03-10T05:15:38.753Z,0.00
2019-03-10T05:16:38.928Z,0.00
2019-03-10T05:17:39.102Z,0.00
2019-03-10T05:18:39.276Z,0.00
2019-03-10T05:19:39.446Z,0.00
2019-03-10T05:20:39.614Z,0.00
2019-03-10T05:21:39.869Z,0.00
2019-03-10T05:22:39.968Z,0.00
2019-03-10T05:23:40.147Z,0.00
2019-03-10T05:24:40.311Z,0.00
2019-03-10T05:25:40.485Z,0.00
2019-03-10T05:26:40.657Z,0.00
2019-03-10T05:27:40.820Z,0.00
2019-03-10T05:28:40.993Z,0.00
2019-03-10T05:29:41.170Z,0.00
2019-03-10T05:30:41.344Z,0.00
2019-03-10T05:31:41.520Z,0.00
2019-03-10T05:32:41.694Z,4.00
2019-03-10T05:33:41.867Z,4.00
2019-03-10T05:34:42.041Z,0.00
2019-03-10T05:35:42.213Z,4.00
2019-03-10T05:36:42.383Z,4.00
2019-03-10T05:37:42.550Z,4.00
2019-03-10T05:38:42.722Z,4.00
2019-03-10T05:39:42.901Z,8.00
2019-03-10T05:40:43.068Z,4.00
2019-03-10T05:41:43.252Z,8.00
2019-03-10T05:42:43.416Z,8.00
2019-03-10T05:43:43.586Z,8.00
2019-03-10T05:44:43.767Z,8.00
2019-03-10T05:45:43.940Z,12.00
2019-03-10T05:46:44.112Z,12.00
2019-03-10T05:47:44.282Z,12.00
2019-03-10T05:48:44.457Z,12.00
2019-03-10T05:49:44.633Z,16.00
2019-03-10T05:50:44.806Z,16.00
2019-03-10T05:51:44.980Z,20.00
2019-03-10T05:52:45.156Z,16.00
2019-03-10T05:53:45.321Z,20.00
2019-03-10T05:54:45.493Z,24.00
2019-03-10T05:55:45.689Z,24.00
2019-03-10T05:56:45.869Z,28.00
2019-03-10T05:57:46.013Z,28.00
2019-03-10T05:58:46.187Z,32.00
2019-03-10T05:59:46.363Z,32.00
2019-03-10T06:00:46.542Z,36.00
2019-03-10T06:01:46.707Z,36.00
2019-03-10T06:02:46.883Z,40.00
2019-03-10T06:03:47.062Z,44.00
2019-03-10T06:04:47.217Z,44.00
2019-03-10T06:05:47.389Z,44.00
2019-03-10T06:06:47.561Z,44.00
2019-03-10T06:07:47.746Z,48.00
2019-03-10T06:08:47.909Z,52.00
2019-03-10T06:09:48.083Z,56.00
2019-03-10T06:10:48.250Z,60.00
2019-03-10T06:11:48.428Z,64.00
2019-03-10T06:12:48.596Z,72.00
2019-03-10T06:13:48.769Z,84.00
2019-03-10T06:14:48.942Z,84.00
2019-03-10T06:15:49.123Z,92.00
2019-03-10T06:16:49.293Z,96.00
2019-03-10T06:17:49.461Z,100.00
2019-03-10T06:18:49.632Z,108.00
2019-03-10T06:19:49.820Z,108.00
2019-03-10T06:20:49.978Z,112.00
2019-03-10T06:21:50.155Z,112.00
2019-03-10T06:22:50.326Z,116.00
2019-03-10T06:23:50.499Z,116.00
2019-03-10T06:24:50.671Z,120.00
2019-03-10T06:25:50.859Z,124.00
2019-03-10T06:26:51.015Z,128.00
2019-03-10T06:27:51.188Z,136.00
2019-03-10T06:28:51.359Z,136.00
2019-03-10T06:29:51.533Z,148.00
2019-03-10T06:30:51.706Z,148.00
2019-03-10T06:31:51.885Z,156.00
2019-03-10T06:32:52.055Z,164.00
2019-03-10T06:33:52.224Z,176.00
2019-03-10T06:34:52.398Z,184.00
2019-03-10T06:35:52.575Z,200.00
2019-03-10T06:36:52.747Z,212.00
2019-03-10T06:37:52.929Z,220.00
2019-03-10T06:38:55.083Z,216.00
2019-03-10T06:39:53.271Z,208.00
2019-03-10T06:40:53.441Z,196.00
2019-03-10T06:41:53.605Z,188.00
2019-03-10T06:42:53.776Z,192.00
2019-03-10T06:43:53.949Z,188.00
2019-03-10T06:44:54.131Z,192.00
2019-03-10T06:45:54.306Z,192.00
2019-03-10T06:46:54.476Z,188.00
2019-03-10T06:47:54.636Z,180.00
2019-03-10T06:48:54.812Z,176.00
2019-03-10T06:49:54.989Z,168.00
2019-03-10T06:50:55.160Z,168.00
2019-03-10T06:51:55.338Z,168.00
2019-03-10T06:52:55.502Z,176.00
2019-03-10T06:53:55.676Z,180.00
2019-03-10T06:54:55.848Z,188.00
2019-03-10T06:55:56.020Z,200.00
2019-03-10T06:56:56.195Z,212.00
2019-03-10T06:57:56.366Z,220.00
2019-03-10T06:58:56.540Z,224.00
2019-03-10T06:59:56.716Z,232.00
2019-03-10T07:00:56.887Z,240.00
2019-03-10T07:01:57.062Z,248.00
2019-03-10T07:02:57.234Z,252.00
2019-03-10T07:03:57.403Z,256.00
2019-03-10T07:04:57.582Z,248.00
2019-03-10T07:05:57.752Z,244.00
2019-03-10T07:06:57.927Z,240.00
2019-03-10T07:07:58.098Z,232.00
2019-03-10T07:08:58.276Z,232.00
2019-03-10T07:09:58.446Z,244.00
2019-03-10T07:10:58.622Z,244.00
2019-03-10T07:11:58.787Z,236.00
2019-03-10T07:12:58.963Z,224.00
2019-03-10T07:13:59.141Z,212.00
2019-03-10T07:14:59.306Z,208.00
2019-03-10T07:15:59.484Z,224.00
2019-03-10T07:16:59.659Z,248.00
2019-03-10T07:17:59.868Z,276.00
2019-03-10T07:19:00.005Z,300.00
2019-03-10T07:20:00.332Z,312.00
2019-03-10T07:21:00.349Z,288.00
2019-03-10T07:22:00.521Z,268.00
2019-03-10T07:23:00.696Z,272.00
2019-03-10T07:24:00.871Z,304.00
2019-03-10T07:25:01.041Z,348.00
2019-03-10T07:26:01.216Z,400.00
2019-03-10T07:27:02.295Z,460.00
2019-03-10T07:28:01.559Z,508.00
2019-03-10T07:29:01.733Z,556.00
2019-03-10T07:30:01.914Z,616.00
2019-03-10T07:31:02.080Z,624.00
2019-03-10T07:32:02.255Z,608.00
2019-03-10T07:33:02.428Z,620.00
2019-03-10T07:34:02.601Z,584.00
2019-03-10T07:35:02.784Z,548.00
2019-03-10T07:36:02.942Z,544.00
2019-03-10T07:37:03.123Z,552.00
2019-03-10T07:38:03.292Z,612.00
2019-03-10T07:39:03.470Z,540.00
2019-03-10T07:40:03.644Z,488.00
2019-03-10T07:41:03.807Z,496.00
2019-03-10T07:42:03.982Z,536.00
2019-03-10T07:43:04.153Z,624.00
2019-03-10T07:44:04.332Z,688.00
2019-03-10T07:45:04.506Z,640.00
2019-03-10T07:46:04.670Z,496.00
2019-03-10T07:47:04.842Z,412.00
2019-03-10T07:48:05.023Z,468.00
2019-03-10T07:49:05.189Z,668.00
2019-03-10T07:50:05.354Z,924.00
2019-03-10T07:51:05.529Z,1240.00
2019-03-10T07:52:05.702Z,1352.00
2019-03-10T07:53:05.869Z,1164.00
2019-03-10T07:54:06.039Z,884.00
2019-03-10T07:55:06.207Z,956.00
2019-03-10T07:56:06.400Z,1040.00
2019-03-10T07:57:06.570Z,1064.00
2019-03-10T07:58:06.748Z,1096.00
2019-03-10T07:59:06.918Z,1072.00
2019-03-10T08:00:07.112Z,1108.00
2019-03-10T08:01:07.269Z,1356.00
2019-03-10T08:02:07.434Z,1504.00
2019-03-10T08:03:07.607Z,1536.00
2019-03-10T08:04:07.779Z,1668.00
2019-03-10T08:05:07.962Z,1576.00
2019-03-10T08:06:08.121Z,1148.00
2019-03-10T08:07:08.293Z,784.00
2019-03-10T08:08:08.473Z,600.00
2019-03-10T08:09:08.638Z,604.00
2019-03-10T08:10:08.810Z,772.00
2019-03-10T08:11:08.980Z,940.00
2019-03-10T08:12:09.163Z,1000.00
2019-03-10T08:13:09.334Z,1012.00
2019-03-10T08:14:09.497Z,992.00
2019-03-10T08:15:09.671Z,996.00
2019-03-10T08:16:09.843Z,984.00
2019-03-10T08:17:10.022Z,876.00
2019-03-10T08:18:10.186Z,800.00
2019-03-10T08:19:10.354Z,776.00
2019-03-10T08:20:10.548Z,820.00
2019-03-10T08:21:10.716Z,856.00
2019-03-10T08:22:10.872Z,952.00
2019-03-10T08:23:11.046Z,1032.00
2019-03-10T08:24:11.227Z,1056.00
2019-03-10T08:25:11.399Z,1164.00
2019-03-10T08:26:11.575Z,1216.00
2019-03-10T08:27:11.758Z,1188.00
2019-03-10T08:28:11.930Z,1380.00
2019-03-10T08:29:12.114Z,1540.00
2019-03-10T08:30:12.316Z,1584.00
2019-03-10T08:31:12.447Z,1368.00
2019-03-10T08:32:13.403Z,1176.00
2019-03-10T08:33:13.404Z,1160.00
2019-03-10T08:34:12.948Z,1004.00
2019-03-10T08:35:13.106Z,984.00
2019-03-10T08:36:13.931Z,1152.00
2019-03-10T08:37:13.438Z,1044.00
2019-03-10T08:38:13.617Z,968.00
2019-03-10T08:39:13.786Z,1072.00
2019-03-10T08:40:13.960Z,1360.00
2019-03-10T08:41:14.143Z,1632.00
2019-03-10T08:42:20.331Z,1600.00
2019-03-10T08:43:14.476Z,1536.00
2019-03-10T08:44:14.659Z,1596.00
2019-03-10T08:45:14.823Z,1596.00
2019-03-10T08:46:14.989Z,1708.00
2019-03-10T08:47:15.156Z,1664.00
2019-03-10T08:48:15.331Z,1648.00
2019-03-10T08:49:15.501Z,1408.00
2019-03-10T08:50:15.682Z,1288.00
2019-03-10T08:51:15.861Z,1396.00
2019-03-10T08:52:16.021Z,1324.00
2019-03-10T08:53:16.197Z,1248.00
2019-03-10T08:54:16.369Z,1460.00
2019-03-10T08:55:16.551Z,1356.00
2019-03-10T08:56:16.724Z,1304.00
2019-03-10T08:57:16.892Z,1260.00
2019-03-10T08:58:17.072Z,1376.00
2019-03-10T08:59:17.240Z,1504.00
2019-03-10T09:00:17.418Z,1508.00
2019-03-10T09:01:17.593Z,1416.00
2019-03-10T09:02:17.768Z,1328.00
2019-03-10T09:03:17.936Z,1320.00
2019-03-10T09:04:18.118Z,1256.00
2019-03-10T09:05:18.286Z,1080.00
2019-03-10T09:06:18.456Z,916.00
2019-03-10T09:07:18.635Z,864.00
2019-03-10T09:08:18.802Z,832.00
2019-03-10T09:09:18.969Z,884.00
2019-03-10T09:10:19.147Z,1036.00
2019-03-10T09:11:19.312Z,1092.00
2019-03-10T09:12:19.487Z,1304.00
2019-03-10T09:13:19.657Z,1520.00
2019-03-10T09:14:19.840Z,1672.00
2019-03-10T09:15:20.017Z,1496.00
2019-03-10T09:16:20.205Z,1200.00
2019-03-10T09:18:20.536Z,1236.00
2019-03-10T09:19:20.697Z,1396.00
2019-03-10T09:20:20.867Z,1740.00
2019-03-10T09:21:21.047Z,1624.00
2019-03-10T09:22:21.218Z,1472.00
2019-03-10T09:23:21.390Z,1556.00
2019-03-10T09:24:21.573Z,1740.00
2019-03-10T09:25:21.754Z,1940.00
2019-03-10T09:26:21.910Z,2272.00
2019-03-10T09:27:22.081Z,2480.00
2019-03-10T09:28:22.260Z,2536.00
2019-03-10T09:29:22.447Z,2376.00
2019-03-10T09:30:22.609Z,1932.00
2019-03-10T09:31:22.783Z,1764.00
2019-03-10T09:32:22.948Z,1668.00
2019-03-10T09:33:23.124Z,1612.00
2019-03-10T09:34:23.301Z,1640.00
2019-03-10T09:35:23.454Z,1592.00
2019-03-10T09:36:23.633Z,1720.00
2019-03-10T09:37:23.823Z,1816.00
2019-03-10T09:38:23.982Z,1864.00
2019-03-10T09:39:24.164Z,1860.00
2019-03-10T09:40:24.354Z,1928.00
2019-03-10T09:41:24.506Z,2200.00
2019-03-10T09:42:24.686Z,2244.00
2019-03-10T09:43:24.859Z,2076.00
2019-03-10T09:44:25.027Z,1988.00
2019-03-10T09:45:25.197Z,1964.00
2019-03-10T09:46:25.384Z,1888.00
2019-03-10T09:47:25.547Z,1852.00
2019-03-10T09:48:25.870Z,2328.00
2019-03-10T09:49:25.948Z,2092.00
2019-03-10T09:50:26.123Z,1712.00
2019-03-10T09:51:26.294Z,1476.00
2019-03-10T09:52:26.487Z,1772.00
2019-03-10T09:53:26.698Z,1876.00
2019-03-10T09:54:27.035Z,2196.00
2019-03-10T09:55:27.077Z,2204.00
2019-03-10T09:56:27.249Z,2620.00
2019-03-10T09:57:27.425Z,2960.00
2019-03-10T09:58:27.740Z,2428.00
2019-03-10T09:59:27.811Z,2328.00
2019-03-10T10:00:27.992Z,2224.00
2019-03-10T10:01:28.152Z,2940.00
2019-03-10T10:02:28.332Z,4344.00
2019-03-10T10:03:28.490Z,5376.00
2019-03-10T10:04:28.660Z,4616.00
2019-03-10T10:05:28.836Z,4388.00
2019-03-10T10:06:29.025Z,3968.00
2019-03-10T10:07:29.193Z,5084.00
2019-03-10T10:08:29.360Z,3996.00
2019-03-10T10:09:29.532Z,3444.00
2019-03-10T10:10:29.723Z,3324.00
2019-03-10T10:11:29.885Z,3064.00
2019-03-10T10:12:30.063Z,3256.00
2019-03-10T10:13:30.243Z,3532.00
2019-03-10T10:14:30.408Z,3800.00
2019-03-10T10:15:30.576Z,3544.00
2019-03-10T10:16:30.747Z,4104.00
2019-03-10T10:17:30.946Z,4524.00
2019-03-10T10:18:31.093Z,4036.00
2019-03-10T10:19:31.269Z,3540.00
2019-03-10T10:20:31.444Z,2796.00
2019-03-10T10:21:31.626Z,2524.00
2019-03-10T10:22:31.792Z,2400.00
2019-03-10T10:23:31.971Z,2164.00
2019-03-10T10:24:32.141Z,2028.00
2019-03-10T10:25:32.317Z,1724.00
2019-03-10T10:26:32.506Z,1708.00
2019-03-10T10:27:32.700Z,1852.00
2019-03-10T10:28:32.886Z,1728.00
2019-03-10T10:29:33.039Z,1636.00
2019-03-10T10:30:33.215Z,1588.00
2019-03-10T10:31:33.381Z,1232.00
2019-03-10T10:32:33.553Z,1172.00
2019-03-10T10:33:33.736Z,2004.00
2019-03-10T10:34:33.903Z,3096.00
2019-03-10T10:35:34.124Z,4068.00
2019-03-10T10:36:34.265Z,4188.00
2019-03-10T10:37:35.551Z,4008.00
2019-03-10T10:38:34.602Z,3280.00
2019-03-10T10:39:34.776Z,3036.00
2019-03-10T10:40:34.942Z,3080.00
2019-03-10T10:41:35.115Z,4060.00
2019-03-10T10:42:35.289Z,4128.00
2019-03-10T10:43:35.459Z,3516.00
2019-03-10T10:44:35.632Z,2932.00
2019-03-10T10:45:35.810Z,2368.00
2019-03-10T10:46:35.982Z,2052.00
2019-03-10T10:47:36.160Z,3240.00
2019-03-10T10:48:36.337Z,3788.00
2019-03-10T10:49:36.517Z,4764.00
2019-03-10T10:50:36.695Z,6152.00
2019-03-10T10:51:36.859Z,6256.00
2019-03-10T10:52:37.032Z,5860.00
2019-03-10T10:53:37.222Z,6276.00
2019-03-10T10:54:37.390Z,6016.00
2019-03-10T10:55:37.584Z,5196.00
2019-03-10T10:56:37.801Z,4184.00
2019-03-10T10:57:37.922Z,4052.00
2019-03-10T10:58:38.083Z,3496.00
2019-03-10T10:59:38.261Z,2952.00
2019-03-10T11:00:38.431Z,2932.00
2019-03-10T11:01:38.608Z,4432.00
2019-03-10T11:02:38.787Z,4552.00
2019-03-10T11:03:38.957Z,4932.00
2019-03-10T11:04:39.141Z,6100.00
2019-03-10T11:05:39.306Z,5688.00
2019-03-10T11:06:39.483Z,4456.00
2019-03-10T11:07:39.682Z,5232.00
2019-03-10T11:08:39.831Z,7860.00
2019-03-10T11:09:40.015Z,7592.00
2019-03-10T11:10:40.186Z,7784.00
2019-03-10T11:11:41.959Z,6308.00
2019-03-10T11:12:40.541Z,5660.00
2019-03-10T11:13:40.713Z,5800.00
2019-03-10T11:14:40.878Z,5636.00
2019-03-10T11:15:41.071Z,3856.00
2019-03-10T11:16:41.240Z,3388.00
2019-03-10T11:17:41.413Z,3092.00
2019-03-10T11:18:41.581Z,3564.00
2019-03-10T11:19:41.761Z,3992.00
2019-03-10T11:20:41.969Z,4176.00
2019-03-10T11:21:42.106Z,4276.00
2019-03-10T11:22:42.282Z,4396.00
2019-03-10T11:23:42.541Z,4652.00
2019-03-10T11:24:42.634Z,4624.00
2019-03-10T11:25:43.455Z,6092.00
2019-03-10T11:26:43.510Z,5656.00
2019-03-10T11:27:43.944Z,5960.00
2019-03-10T11:28:43.370Z,6084.00
2019-03-10T11:29:43.549Z,7848.00
2019-03-10T11:30:43.721Z,8072.00
2019-03-10T11:31:43.921Z,10164.00
2019-03-10T11:32:44.071Z,12692.00
2019-03-10T11:33:44.245Z,12400.00
2019-03-10T11:34:44.414Z,8500.00
2019-03-10T11:35:44.592Z,7552.00
2019-03-10T11:36:44.770Z,7004.00
2019-03-10T11:37:44.946Z,13388.00
2019-03-10T11:38:45.124Z,8416.00
2019-03-10T11:39:45.320Z,11736.00
2019-03-10T11:40:45.497Z,6424.00
2019-03-10T11:41:47.945Z,5892.00
2019-03-10T11:42:45.911Z,5660.00
2019-03-10T11:43:46.096Z,5052.00
2019-03-10T11:44:46.293Z,4164.00
2019-03-10T11:45:46.442Z,3108.00
2019-03-10T11:46:46.696Z,2712.00
2019-03-10T11:47:46.802Z,2320.00
2019-03-10T11:48:46.999Z,1656.00
2019-03-10T11:49:47.149Z,1360.00
2019-03-10T11:50:47.312Z,1336.00
2019-03-10T11:51:47.538Z,1580.00
2019-03-10T11:52:47.721Z,2496.00
2019-03-10T11:53:47.892Z,2488.00
2019-03-10T11:54:48.081Z,2076.00
2019-03-10T11:55:48.252Z,1760.00
2019-03-10T11:56:48.410Z,1240.00
2019-03-10T11:57:48.590Z,1296.00
2019-03-10T11:58:48.765Z,1144.00
2019-03-10T11:59:48.932Z,1040.00
2019-03-10T12:00:49.180Z,1268.00
2019-03-10T12:01:49.356Z,1480.00
2019-03-10T12:02:49.467Z,1796.00
2019-03-10T12:03:49.651Z,2456.00
2019-03-10T12:04:49.815Z,3440.00
2019-03-10T12:05:49.989Z,3436.00
2019-03-10T12:06:50.165Z,4108.00
2019-03-10T12:07:50.339Z,6460.00
2019-03-10T12:08:50.515Z,5712.00
2019-03-10T12:09:50.738Z,5768.00
2019-03-10T12:10:50.939Z,5028.00
2019-03-10T12:11:51.060Z,5224.00
2019-03-10T12:12:51.237Z,5128.00
2019-03-10T12:13:51.417Z,5288.00
2019-03-10T12:14:51.627Z,5452.00
2019-03-10T12:15:51.783Z,5748.00
2019-03-10T12:16:51.981Z,5288.00
2019-03-10T12:17:52.227Z,4640.00
2019-03-10T12:18:52.318Z,3868.00
2019-03-10T12:19:52.483Z,6140.00
2019-03-10T12:20:52.660Z,4692.00
2019-03-10T12:21:52.838Z,4524.00
2019-03-10T12:22:53.016Z,4636.00
2019-03-10T12:23:53.206Z,4544.00
2019-03-10T12:24:53.378Z,4368.00
2019-03-10T12:25:53.549Z,4112.00
2019-03-10T12:26:53.715Z,3352.00
2019-03-10T12:27:53.917Z,2564.00
2019-03-10T12:28:54.118Z,2028.00
2019-03-10T12:29:54.292Z,1372.00
2019-03-10T12:30:54.463Z,876.00
2019-03-10T12:31:54.642Z,668.00
2019-03-10T12:32:54.840Z,580.00
2019-03-10T12:33:55.023Z,496.00
2019-03-10T12:34:55.190Z,468.00
2019-03-10T12:35:55.365Z,524.00
2019-03-10T12:36:55.552Z,732.00
2019-03-10T12:37:55.723Z,1020.00
2019-03-10T12:38:55.953Z,1408.00
2019-03-10T12:39:56.066Z,1948.00
2019-03-10T12:40:56.252Z,2656.00
2019-03-10T12:41:58.753Z,3800.00
2019-03-10T12:42:56.597Z,4800.00
2019-03-10T12:43:56.789Z,5496.00
2019-03-10T12:44:56.949Z,6432.00
2019-03-10T12:45:57.125Z,7308.00